createdAt,value
2023-03-21T00:01:54.517Z,4.70
2023-03-21T00:04:58.512Z,4.60
2023-03-21T00:08:05.624Z,5.00
2023-03-21T00:11:09.703Z,4.97
2023-03-21T00:14:14.555Z,5.07
2023-03-21T00:17:17.454Z,4.83
2023-03-21T00:20:20.703Z,5.55
2023-03-21T00:23:22.816Z,4.70
2023-03-21T00:26:26.041Z,5.15
2023-03-21T00:29:28.236Z,5.25
2023-03-21T00:32:30.535Z,4.80
2023-03-21T00:36:06.736Z,5.30
2023-03-21T00:38:54.958Z,4.63
2023-03-21T00:41:57.147Z,5.10
2023-03-21T00:45:00.189Z,4.97
2023-03-21T00:48:02.386Z,4.97
2023-03-21T00:51:12.401Z,4.65
2023-03-21T00:54:14.610Z,5.32
2023-03-21T00:57:16.926Z,4.15
2023-03-21T01:00:20.560Z,5.78
2023-03-21T01:03:26.560Z,5.22
2023-03-21T01:06:28.769Z,4.93
2023-03-21T01:09:30.957Z,4.47
2023-03-21T01:12:33.463Z,4.40
2023-03-21T01:15:36.508Z,5.07
2023-03-21T01:18:40.369Z,5.40
2023-03-21T01:21:44.055Z,5.30
2023-03-21T01:24:55.084Z,5.22
2023-03-21T01:27:57.743Z,5.13
2023-03-21T01:31:02.250Z,4.32
2023-03-21T01:34:04.853Z,4.72
2023-03-21T01:37:07.234Z,4.57
2023-03-21T01:40:25.628Z,4.47
2023-03-21T01:43:37.009Z,4.18
2023-03-21T01:46:57.066Z,4.55
2023-03-21T01:50:23.934Z,4.83
2023-03-21T01:53:49.134Z,4.13
2023-03-21T01:56:54.502Z,4.65
2023-03-21T01:59:57.208Z,4.47
2023-03-21T02:03:11.471Z,4.32
2023-03-21T02:06:35.426Z,4.85
2023-03-21T02:09:49.468Z,5.00
2023-03-21T02:12:58.692Z,4.37
2023-03-21T02:16:34.692Z,4.50
2023-03-21T02:19:53.457Z,5.00
2023-03-21T02:23:43.297Z,4.17
2023-03-21T02:27:03.608Z,4.20
2023-03-21T02:30:42.514Z,4.03
2023-03-21T02:34:37.231Z,4.38
2023-03-21T02:38:00.678Z,3.78
2023-03-21T02:41:18.756Z,4.28
2023-03-21T02:44:45.330Z,4.53
2023-03-21T02:47:55.195Z,4.40
2023-03-21T02:50:59.380Z,3.75
2023-03-21T02:54:27.873Z,4.22
2023-03-21T02:57:40.037Z,4.83
2023-03-21T03:00:46.377Z,4.00
2023-03-21T03:03:57.389Z,4.05
2023-03-21T03:07:05.528Z,4.57
2023-03-21T03:10:10.910Z,4.70
2023-03-21T03:13:43.590Z,4.40
2023-03-21T03:17:03.200Z,4.03
2023-03-21T03:20:17.073Z,5.10
2023-03-21T03:23:28.680Z,4.10
2023-03-21T03:26:37.323Z,4.10
2023-03-21T03:29:41.794Z,4.03
2023-03-21T03:32:48.210Z,3.63
2023-03-21T03:36:04.402Z,4.22
2023-03-21T03:39:12.544Z,3.72
2023-03-21T03:42:28.402Z,4.15
2023-03-21T03:45:47.874Z,4.05
2023-03-21T03:48:56.938Z,3.92
2023-03-21T03:52:04.409Z,4.17
2023-03-21T03:55:14.943Z,3.65
2023-03-21T03:58:23.839Z,4.15
2023-03-21T04:01:29.222Z,4.13
2023-03-21T04:04:43.509Z,3.40
2023-03-21T04:07:46.816Z,3.50
2023-03-21T04:10:49.603Z,3.30
2023-03-21T04:13:52.446Z,3.42
2023-03-21T04:16:59.189Z,3.78
2023-03-21T04:20:11.654Z,3.80
2023-03-21T04:23:19.543Z,3.30
2023-03-21T04:26:24.431Z,3.33
2023-03-21T04:29:50.008Z,3.45
2023-03-21T04:33:05.179Z,3.43
2023-03-21T04:36:09.816Z,3.50
2023-03-21T04:39:17.258Z,3.25
2023-03-21T04:42:23.006Z,3.08
2023-03-21T04:45:25.306Z,3.58
2023-03-21T04:48:28.955Z,3.72
2023-03-21T04:51:32.065Z,3.28
2023-03-21T04:54:34.895Z,3.30
2023-03-21T04:57:38.603Z,3.50
2023-03-21T05:00:41.413Z,3.40
2023-03-21T05:03:43.698Z,3.30
2023-03-21T05:06:46.200Z,3.50
2023-03-21T05:09:48.425Z,3.67
2023-03-21T05:12:52.202Z,3.33
2023-03-21T05:15:54.542Z,3.03
2023-03-21T05:19:05.247Z,3.50
2023-03-21T05:22:14.336Z,3.55
2023-03-21T05:25:35.339Z,3.00
2023-03-21T05:28:48.026Z,3.83
2023-03-21T05:31:50.389Z,3.45
2023-03-21T05:34:52.715Z,2.93
2023-03-21T05:37:57.696Z,3.17
2023-03-21T05:41:02.107Z,2.90
2023-03-21T05:44:05.514Z,3.30
2023-03-21T05:47:08.623Z,3.30
2023-03-21T05:50:20.804Z,3.03
2023-03-21T05:53:39.828Z,2.50
2023-03-21T05:56:42.396Z,3.37
2023-03-21T05:59:47.595Z,3.25
2023-03-21T06:02:53.407Z,2.70
2023-03-21T06:06:22.688Z,3.10
2023-03-21T06:09:34.399Z,3.08
2023-03-21T06:12:39.045Z,3.10
2023-03-21T06:16:04.340Z,3.25
2023-03-21T06:19:09.311Z,3.22
2023-03-21T06:22:38.037Z,3.55
2023-03-21T06:25:41.305Z,3.20
2023-03-21T06:28:44.063Z,3.53
2023-03-21T06:31:46.406Z,3.72
2023-03-21T06:34:48.823Z,3.40
2023-03-21T06:37:51.636Z,3.27
2023-03-21T06:40:54.910Z,3.55
2023-03-21T06:44:00.030Z,2.85
2023-03-21T06:47:03.425Z,2.80
2023-03-21T06:50:07.074Z,2.90
2023-03-21T06:53:15.327Z,2.70
2023-03-21T06:56:43.652Z,2.17
2023-03-21T06:59:48.862Z,1.90
2023-03-21T07:02:54.979Z,3.05
2023-03-21T07:06:08.694Z,2.97
2023-03-21T07:09:18.392Z,2.30
2023-03-21T07:12:23.544Z,2.67
2023-03-21T07:15:58.600Z,2.92
2023-03-21T07:19:06.103Z,3.00
2023-03-21T07:22:08.467Z,3.08
2023-03-21T07:25:11.059Z,2.42
2023-03-21T07:28:17.248Z,2.80
2023-03-21T07:31:20.428Z,2.80
2023-03-21T07:34:23.981Z,3.45
2023-03-21T07:37:26.527Z,2.60
2023-03-21T07:40:28.761Z,2.47
2023-03-21T07:43:31.155Z,2.83
2023-03-21T07:46:34.294Z,2.42
2023-03-21T07:49:37.708Z,2.55
2023-03-21T07:52:39.969Z,2.30
2023-03-21T07:55:42.225Z,2.50
2023-03-21T07:58:44.400Z,2.80
2023-03-21T08:01:46.630Z,2.60
2023-03-21T08:04:49.052Z,2.50
2023-03-21T08:07:51.996Z,2.30
2023-03-21T08:10:54.305Z,2.43
2023-03-21T08:13:58.807Z,2.40
2023-03-21T08:17:01.103Z,2.30
2023-03-21T08:20:07.867Z,2.05
2023-03-21T08:23:10.406Z,2.30
2023-03-21T08:26:16.017Z,2.38
2023-03-21T08:29:18.253Z,2.03
2023-03-21T08:32:20.457Z,3.00
2023-03-21T08:35:22.677Z,2.45
2023-03-21T08:38:29.744Z,2.13
2023-03-21T08:41:32.947Z,2.60
2023-03-21T08:44:35.334Z,2.80
2023-03-21T08:47:37.711Z,2.60
2023-03-21T08:50:42.165Z,2.40
2023-03-21T08:53:44.458Z,2.20
2023-03-21T08:56:46.885Z,2.55
2023-03-21T08:59:55.155Z,2.75
2023-03-21T09:02:59.246Z,2.40
2023-03-21T09:06:02.973Z,2.65
2023-03-21T09:09:07.583Z,2.67
2023-03-21T09:12:10.229Z,2.70
2023-03-21T09:15:13.134Z,2.30
2023-03-21T09:18:18.165Z,2.15
2023-03-21T09:21:21.476Z,1.75
2023-03-21T09:24:24.231Z,2.15
2023-03-21T09:27:28.152Z,2.55
2023-03-21T09:30:36.174Z,2.40
2023-03-21T09:33:41.591Z,1.90
2023-03-21T09:36:48.314Z,2.38
2023-03-21T09:39:55.862Z,2.55
2023-03-21T09:43:04.459Z,2.10
2023-03-21T09:46:37.181Z,1.63
2023-03-21T09:50:07.524Z,2.42
2023-03-21T09:53:31.392Z,1.92
2023-03-21T09:56:36.579Z,2.78
2023-03-21T09:59:46.789Z,2.10
2023-03-21T10:02:56.245Z,2.45
2023-03-21T10:06:01.169Z,2.03
2023-03-21T10:09:12.684Z,1.70
2023-03-21T10:12:30.855Z,2.30
2023-03-21T10:15:35.915Z,2.10
2023-03-21T10:18:38.988Z,2.17
2023-03-21T10:22:03.752Z,2.40
2023-03-21T10:25:09.035Z,2.00
2023-03-21T10:28:23.554Z,2.47
2023-03-21T10:31:28.427Z,2.28
2023-03-21T10:34:33.738Z,2.00
2023-03-21T10:37:36.471Z,1.83
2023-03-21T10:40:40.704Z,1.90
2023-03-21T10:43:53.564Z,2.03
2023-03-21T10:46:58.326Z,2.20
2023-03-21T10:50:12.148Z,2.05
2023-03-21T10:53:29.648Z,1.95
2023-03-21T10:56:39.277Z,2.13
2023-03-21T10:59:47.703Z,2.40
2023-03-21T11:02:52.240Z,1.70
2023-03-21T11:05:57.291Z,2.03
2023-03-21T11:09:13.206Z,1.63
2023-03-21T11:12:38.828Z,2.03
2023-03-21T11:15:48.858Z,2.10
2023-03-21T11:18:52.989Z,2.20
2023-03-21T11:21:57.554Z,1.90
2023-03-21T11:25:01.271Z,1.83
2023-03-21T11:28:12.589Z,1.90
2023-03-21T11:31:17.049Z,1.80
2023-03-21T11:34:28.999Z,1.30
2023-03-21T11:37:55.290Z,1.77
2023-03-21T11:41:01.971Z,2.10
2023-03-21T11:44:04.489Z,1.90
2023-03-21T11:47:09.556Z,1.40
2023-03-21T11:50:27.124Z,1.60
2023-03-21T11:54:19.521Z,1.30
2023-03-21T11:57:42.679Z,1.60
2023-03-21T12:01:13.157Z,1.60
2023-03-21T12:04:15.551Z,1.88
2023-03-21T12:07:36.729Z,1.65
2023-03-21T12:11:13.807Z,1.95
2023-03-21T12:14:34.818Z,1.70
2023-03-21T12:18:04.025Z,1.67
2023-03-21T12:21:30.513Z,1.67
2023-03-21T12:24:43.453Z,1.87
2023-03-21T12:28:03.655Z,1.65
2023-03-21T12:31:12.144Z,1.60
2023-03-21T12:34:19.725Z,1.60
2023-03-21T12:37:55.503Z,1.80
2023-03-21T12:41:33.774Z,1.30
2023-03-21T12:44:39.213Z,1.50
2023-03-21T12:47:43.148Z,1.30
2023-03-21T12:50:46.174Z,1.60
2023-03-21T12:53:53.316Z,1.30
2023-03-21T12:57:10.054Z,1.60
2023-03-21T13:00:24.937Z,1.42
2023-03-21T13:03:41.951Z,1.40
2023-03-21T13:06:44.812Z,1.15
2023-03-21T13:09:47.062Z,1.15
2023-03-21T13:13:09.917Z,1.17
2023-03-21T13:16:27.522Z,1.38
2023-03-21T13:19:42.514Z,0.83
2023-03-21T13:22:45.777Z,1.00
2023-03-21T13:25:50.088Z,1.08
2023-03-21T13:28:52.484Z,1.20
2023-03-21T13:31:57.532Z,1.20
2023-03-21T13:35:21.560Z,1.17
2023-03-21T13:38:28.686Z,1.33
2023-03-21T13:41:30.831Z,1.50
2023-03-21T13:44:39.649Z,1.55
2023-03-21T13:47:52.349Z,1.20
2023-03-21T13:51:05.597Z,1.10
2023-03-21T13:54:07.680Z,1.38
2023-03-21T13:57:23.435Z,0.98
2023-03-21T14:00:30.919Z,1.10
2023-03-21T14:03:34.500Z,1.10
2023-03-21T14:07:07.253Z,0.80
2023-03-21T14:10:20.131Z,1.02
2023-03-21T14:13:25.230Z,1.05
2023-03-21T14:16:33.256Z,1.23
2023-03-21T14:19:35.517Z,0.90
2023-03-21T14:22:39.365Z,1.00
2023-03-21T14:25:47.506Z,1.08
2023-03-21T14:28:53.040Z,1.23
2023-03-21T14:31:56.408Z,1.10
2023-03-21T14:35:01.102Z,0.98
2023-03-21T14:38:09.327Z,1.20
2023-03-21T14:41:25.318Z,1.30
2023-03-21T14:44:41.051Z,1.00
2023-03-21T14:48:04.157Z,1.00
2023-03-21T14:51:10.924Z,0.60
2023-03-21T14:54:17.712Z,0.80
2023-03-21T14:57:24.966Z,0.95
2023-03-21T15:00:29.818Z,0.98
2023-03-21T15:03:32.738Z,1.10
2023-03-21T15:06:51.934Z,0.95
2023-03-21T15:10:04.723Z,1.00
2023-03-21T15:13:16.240Z,1.20
2023-03-21T15:16:19.172Z,1.00
2023-03-21T15:19:26.237Z,0.95
2023-03-21T15:22:37.418Z,1.20
2023-03-21T15:25:40.069Z,0.63
2023-03-21T15:28:45.537Z,1.08
2023-03-21T15:31:48.340Z,1.08
2023-03-21T15:34:52.292Z,1.10
2023-03-21T15:37:58.573Z,1.23
2023-03-21T15:41:19.065Z,1.50
2023-03-21T15:44:22.184Z,1.30
2023-03-21T15:47:41.130Z,1.42
2023-03-21T15:50:51.734Z,1.50
2023-03-21T15:53:54.326Z,1.30
2023-03-21T15:57:01.332Z,1.10
2023-03-21T16:00:19.900Z,1.30
2023-03-21T16:03:28.348Z,1.42
2023-03-21T16:06:35.659Z,1.33
2023-03-21T16:09:44.053Z,1.40
2023-03-21T16:12:46.239Z,1.20
2023-03-21T16:15:48.483Z,1.50
2023-03-21T16:18:51.597Z,1.60
2023-03-21T16:21:53.809Z,1.58
2023-03-21T16:24:56.001Z,1.50
2023-03-21T16:27:58.247Z,1.40
2023-03-21T16:31:00.846Z,1.60
2023-03-21T16:34:05.103Z,1.65
2023-03-21T16:37:10.428Z,1.57
2023-03-21T16:40:18.259Z,2.00
2023-03-21T16:43:20.878Z,1.90
2023-03-21T16:46:25.406Z,1.67
2023-03-21T16:49:27.646Z,2.35
2023-03-21T16:52:29.890Z,2.40
2023-03-21T16:55:33.500Z,2.38
2023-03-21T16:58:35.812Z,2.10
2023-03-21T17:01:40.244Z,2.55
2023-03-21T17:04:43.070Z,1.98
2023-03-21T17:07:47.096Z,2.20
2023-03-21T17:10:49.373Z,2.13
2023-03-21T17:13:53.820Z,2.40
2023-03-21T17:16:56.160Z,2.20
2023-03-21T17:19:58.454Z,2.38
2023-03-21T17:23:01.409Z,2.03
2023-03-21T17:26:03.692Z,2.13
2023-03-21T17:29:06.133Z,2.20
2023-03-21T17:32:08.388Z,2.58
2023-03-21T17:35:10.606Z,2.08
2023-03-21T17:38:16.735Z,2.40
2023-03-21T17:41:20.306Z,2.33
2023-03-21T17:44:22.576Z,2.90
2023-03-21T17:47:25.699Z,2.70
2023-03-21T17:50:34.250Z,2.92
2023-03-21T17:53:36.461Z,2.80
2023-03-21T17:56:41.831Z,2.30
2023-03-21T17:59:44.266Z,2.50
2023-03-21T18:02:47.376Z,2.10
2023-03-21T18:05:49.563Z,3.10
2023-03-21T18:08:53.075Z,2.63
2023-03-21T18:11:55.329Z,2.80
2023-03-21T18:14:57.614Z,2.55
2023-03-21T18:17:59.872Z,3.03
2023-03-21T18:21:02.423Z,3.13
2023-03-21T18:24:05.243Z,2.80
2023-03-21T18:27:08.758Z,2.85
2023-03-21T18:30:32.777Z,3.17
2023-03-21T18:33:40.211Z,2.83
2023-03-21T18:36:42.759Z,3.17
2023-03-21T18:39:45.560Z,2.73
2023-03-21T18:43:41.432Z,2.80
2023-03-21T18:46:10.367Z,2.40
2023-03-21T18:52:38.283Z,3.45
2023-03-21T18:55:46.043Z,2.72
2023-03-21T18:58:48.886Z,3.03
2023-03-21T19:01:51.478Z,3.27
2023-03-21T19:04:54.091Z,3.38
2023-03-21T19:07:56.386Z,3.03
2023-03-21T19:11:03.352Z,2.90
2023-03-21T19:14:12.145Z,3.38
2023-03-21T19:20:38.319Z,3.33
2023-03-21T19:24:16.329Z,3.50
2023-03-21T19:27:03.184Z,3.40
2023-03-21T19:30:14.319Z,2.92
2023-03-21T19:33:19.909Z,3.67
2023-03-21T19:36:23.412Z,3.65
2023-03-21T19:39:26.114Z,4.00
2023-03-21T19:42:30.693Z,3.37
2023-03-21T19:45:33.267Z,3.15
2023-03-21T19:48:38.011Z,3.60
2023-03-21T19:51:40.749Z,4.10
2023-03-21T19:54:43.267Z,2.83
2023-03-21T19:57:48.651Z,3.35
2023-03-21T20:00:50.916Z,3.42
2023-03-21T20:03:53.739Z,3.63
2023-03-21T20:06:58.188Z,4.18
2023-03-21T20:10:00.636Z,3.63
2023-03-21T20:13:02.890Z,3.43
2023-03-21T20:16:05.269Z,3.90
2023-03-21T20:19:10.198Z,3.65
2023-03-21T20:22:24.613Z,3.05
2023-03-21T20:25:31.186Z,3.35
2023-03-21T20:28:33.472Z,3.50
2023-03-21T20:31:35.783Z,3.60
2023-03-21T20:34:38.331Z,3.60
2023-03-21T20:37:47.922Z,3.17
2023-03-21T20:40:50.107Z,3.13
2023-03-21T20:47:16.514Z,3.50
2023-03-21T20:50:22.047Z,3.58
2023-03-21T20:53:25.027Z,3.17
2023-03-21T20:56:27.291Z,3.70
2023-03-21T20:59:29.714Z,2.83
2023-03-21T21:02:32.087Z,2.90
2023-03-21T21:05:34.976Z,3.50
2023-03-21T21:08:38.135Z,3.42
2023-03-21T21:12:05.491Z,3.40
2023-03-21T21:15:03.052Z,2.93
2023-03-21T21:18:07.440Z,2.83
2023-03-21T21:21:10.127Z,3.15
2023-03-21T21:24:14.571Z,3.45
2023-03-21T21:27:17.061Z,3.50
2023-03-21T21:30:19.284Z,3.38
2023-03-21T21:33:22.382Z,3.20
2023-03-21T21:36:24.558Z,2.77
2023-03-21T21:39:27.563Z,3.20
2023-03-21T21:42:29.729Z,3.20
2023-03-21T21:45:32.192Z,2.67
2023-03-21T21:48:34.408Z,3.25
2023-03-21T21:51:36.689Z,3.65
2023-03-21T21:54:45.476Z,3.55
2023-03-21T21:57:50.313Z,3.90
2023-03-21T22:00:52.575Z,3.80
2023-03-21T22:03:57.702Z,4.45
2023-03-21T22:06:59.897Z,4.10
2023-03-21T22:10:02.016Z,4.90
2023-03-21T22:13:04.381Z,3.95
2023-03-21T22:16:06.983Z,4.90
2023-03-21T22:19:09.271Z,4.50
2023-03-21T22:22:11.511Z,4.40
2023-03-21T22:25:15.374Z,4.47
2023-03-21T22:28:17.941Z,4.95
2023-03-21T22:31:20.947Z,5.18
2023-03-21T22:34:26.044Z,4.55
2023-03-21T22:37:29.316Z,4.63
2023-03-21T22:40:31.478Z,5.07
2023-03-21T22:43:34.471Z,4.75
2023-03-21T22:46:36.725Z,4.77
2023-03-21T22:49:40.216Z,5.00
2023-03-21T22:52:42.471Z,4.75
2023-03-21T22:55:44.584Z,5.03
2023-03-21T22:58:46.801Z,5.15
2023-03-21T23:01:49.293Z,5.30
2023-03-21T23:04:51.505Z,4.80
2023-03-21T23:07:54.006Z,4.60
2023-03-21T23:10:56.394Z,5.82
2023-03-21T23:14:07.694Z,5.47
2023-03-21T23:17:12.483Z,6.03
2023-03-21T23:20:14.825Z,5.88
2023-03-21T23:23:17.336Z,5.88
2023-03-21T23:26:21.745Z,6.45
2023-03-21T23:29:23.934Z,6.55
2023-03-21T23:32:26.166Z,6.65
2023-03-21T23:35:28.407Z,7.10
2023-03-21T23:38:31.148Z,6.73
2023-03-21T23:41:33.441Z,7.10
2023-03-21T23:44:35.698Z,7.68
2023-03-21T23:47:37.942Z,7.83
2023-03-21T23:50:40.488Z,7.82
2023-03-21T23:53:44.434Z,6.90
2023-03-21T23:56:46.741Z,8.00
2023-03-21T23:59:48.984Z,8.27
